KPRO/PRO METAR and TAF weather

Enter ICAO airport designator
Station Type Date Time Source
KPRO METAR 2022/11/26 09:15 UTC NOAA

KPRO 260915Z AUTO 18009KT 10SM CLR M01/M04 A3005 RMK AO2 T10061036


Station Type Date Time Source
KPRO Decoded METAR 2022/11/26 09:15 UTC NOAA

Station name not available
Nov 26, 2022 - 04:15 AM EST / 2022.11.26 0915 UTC
Wind: from the S (180 degrees) at 10 MPH (9 KT):0
Visibility: 10 mile(s):0
Sky conditions: clear
Temperature: 30.9 F (-0.6 C)
Windchill: 23 F (-5 C):1
Dew Point: 25.5 F (-3.6 C)
Relative Humidity: 80%
Pressure (altimeter): 30.05 in. Hg (1017 hPa)
ob: KPRO 260915Z AUTO 18009KT 10SM CLR M01/M04 A3005 RMK AO2 T10061036
cycle: 9

Station Type Date Time Source
KPRO TAF UTC NOAA

Error!

Example: see airport list